Time,TemperatureF,DewpointF,PressureIn,WindDirection,WindDirectionDegrees,WindSpeedMPH,WindSpeedGustMPH,Humidity,HourlyPrecipIn,Conditions,Clouds,dailyrainin,SolarRadiationWatts/m^2,SoftwareType,DateUTC
2013-07-09 00:02:00,79.0,72.0,-100.00,SE,136,4.0,8.0,80,0.00,,,0.01,0.000000,,2013-07-09 05:02:00,
2013-07-09 00:11:00,79.0,74.0,-100.00,SE,129,3.0,12.0,84,0.00,,,0.01,0.000000,,2013-07-09 05:11:00,
2013-07-09 00:42:00,79.0,74.0,-100.00,SE,129,3.0,12.0,84,0.00,,,0.01,0.000000,,2013-07-09 05:42:00,
2013-07-09 00:52:00,79.0,74.0,-100.00,SE,129,3.0,12.0,84,0.00,,,0.01,0.000000,,2013-07-09 05:52:00,
2013-07-09 01:01:00,79.0,74.0,-100.00,SE,129,3.0,12.0,84,0.00,,,0.01,0.000000,,2013-07-09 06:01:00,
2013-07-09 01:11:00,79.0,72.0,-100.00,South,175,6.0,15.0,80,0.00,,,0.00,0.000000,,2013-07-09 06:11:00,
2013-07-09 01:43:00,79.0,72.0,-100.00,South,175,6.0,15.0,80,0.00,,,0.00,0.000000,,2013-07-09 06:43:00,
2013-07-09 01:53:00,79.0,72.0,-100.00,South,175,6.0,15.0,80,0.00,,,0.00,0.000000,,2013-07-09 06:53:00,
2013-07-09 02:02:00,79.0,72.0,-100.00,South,175,6.0,15.0,80,0.00,,,0.00,0.000000,,2013-07-09 07:02:00,
2013-07-09 02:11:00,76.0,72.0,-100.00,SE,134,4.0,22.0,87,0.00,,,0.00,0.000000,,2013-07-09 07:11:00,
2013-07-09 02:43:00,76.0,72.0,-100.00,SE,134,4.0,22.0,87,0.00,,,0.00,0.000000,,2013-07-09 07:43:00,
2013-07-09 02:53:00,76.0,72.0,-100.00,SE,134,4.0,22.0,87,0.00,,,0.00,0.000000,,2013-07-09 07:53:00,
2013-07-09 03:01:00,76.0,72.0,-100.00,SE,134,4.0,22.0,87,0.00,,,0.00,0.000000,,2013-07-09 08:01:00,
2013-07-09 03:11:00,78.0,72.0,-100.00,SE,135,4.0,12.0,83,0.00,,,0.00,0.000000,,2013-07-09 08:11:00,
2013-07-09 03:43:00,78.0,72.0,-100.00,SE,135,4.0,12.0,83,0.00,,,0.00,0.000000,,2013-07-09 08:43:00,
2013-07-09 03:52:00,78.0,72.0,-100.00,SE,135,4.0,12.0,83,0.00,,,0.00,0.000000,,2013-07-09 08:52:00,
2013-07-09 04:02:00,78.0,72.0,-100.00,SE,135,4.0,12.0,83,0.00,,,0.00,0.000000,,2013-07-09 09:02:00,
2013-07-09 04:11:00,75.0,69.0,-100.00,South,187,2.0,10.0,81,0.00,,,0.00,0.000000,,2013-07-09 09:11:00,
2013-07-09 04:42:00,75.0,69.0,-100.00,South,187,2.0,10.0,81,0.00,,,0.00,0.000000,,2013-07-09 09:42:00,
2013-07-09 04:53:00,75.0,69.0,-100.00,South,187,2.0,10.0,81,0.00,,,0.00,0.000000,,2013-07-09 09:53:00,
2013-07-09 05:01:00,75.0,69.0,-100.00,South,187,2.0,10.0,81,0.00,,,0.00,0.000000,,2013-07-09 10:01:00,
2013-07-09 05:11:00,73.0,69.0,-100.00,NE,37,2.0,8.0,88,0.01,,,0.01,0.000000,,2013-07-09 10:11:00,
2013-07-09 05:42:00,73.0,69.0,-100.00,NE,37,2.0,8.0,88,0.01,,,0.01,0.000000,,2013-07-09 10:42:00,
2013-07-09 05:52:00,73.0,69.0,-100.00,NE,37,2.0,8.0,88,0.01,,,0.01,0.000000,,2013-07-09 10:52:00,
2013-07-09 06:01:00,73.0,69.0,-100.00,NE,37,2.0,8.0,88,0.01,,,0.01,0.000000,,2013-07-09 11:01:00,
2013-07-09 06:11:00,72.0,69.0,-100.00,North,350,3.0,7.0,89,0.00,,,0.01,0.000000,,2013-07-09 11:11:00,
2013-07-09 06:42:00,72.0,69.0,-100.00,North,350,3.0,7.0,89,0.00,,,0.01,0.000000,,2013-07-09 11:42:00,
2013-07-09 06:53:00,72.0,69.0,-100.00,North,350,3.0,7.0,89,0.00,,,0.01,0.000000,,2013-07-09 11:53:00,
2013-07-09 07:02:00,72.0,69.0,-100.00,North,350,3.0,7.0,89,0.00,,,0.01,0.000000,,2013-07-09 12:02:00,
2013-07-09 07:11:00,72.0,68.0,-100.00,NNE,22,10.0,20.0,87,0.00,,,0.01,8.000000,,2013-07-09 12:11:00,
2013-07-09 07:43:00,72.0,68.0,-100.00,NNE,22,10.0,20.0,87,0.00,,,0.01,8.000000,,2013-07-09 12:43:00,
2013-07-09 07:52:00,72.0,68.0,-100.00,NNE,22,10.0,20.0,87,0.00,,,0.01,8.000000,,2013-07-09 12:52:00,
2013-07-09 08:01:00,72.0,68.0,-100.00,NNE,22,10.0,20.0,87,0.00,,,0.01,8.000000,,2013-07-09 13:01:00,
2013-07-09 08:11:00,76.0,70.0,-100.00,NE,47,6.0,13.0,83,0.00,,,0.01,112.000000,,2013-07-09 13:11:00,
2013-07-09 08:43:00,76.0,70.0,-100.00,NE,47,6.0,13.0,83,0.00,,,0.01,112.000000,,2013-07-09 13:43:00,
2013-07-09 08:53:00,76.0,70.0,-100.00,NE,47,6.0,13.0,83,0.00,,,0.01,112.000000,,2013-07-09 13:53:00,
2013-07-09 09:01:00,76.0,70.0,-100.00,NE,47,6.0,13.0,83,0.00,,,0.01,112.000000,,2013-07-09 14:01:00,
2013-07-09 09:11:00,80.0,72.0,-100.00,SSE,162,3.0,10.0,77,0.00,,,0.01,285.000000,,2013-07-09 14:11:00,
2013-07-09 09:43:00,80.0,72.0,-100.00,SSE,162,3.0,10.0,77,0.00,,,0.01,285.000000,,2013-07-09 14:43:00,
2013-07-09 09:53:00,80.0,72.0,-100.00,SSE,162,3.0,10.0,77,0.00,,,0.01,285.000000,,2013-07-09 14:53:00,
2013-07-09 10:01:00,80.0,72.0,-100.00,SSE,162,3.0,10.0,77,0.00,,,0.01,285.000000,,2013-07-09 15:01:00,
2013-07-09 10:11:00,82.0,72.0,-100.00,SSW,197,4.0,9.0,72,0.00,,,0.01,416.000000,,2013-07-09 15:11:00,
2013-07-09 10:43:00,82.0,72.0,-100.00,SSW,197,4.0,9.0,72,0.00,,,0.01,416.000000,,2013-07-09 15:43:00,
2013-07-09 10:52:00,82.0,72.0,-100.00,SSW,197,4.0,9.0,72,0.00,,,0.01,416.000000,,2013-07-09 15:52:00,
2013-07-09 11:02:00,82.0,72.0,-100.00,SSW,197,4.0,9.0,72,0.00,,,0.01,416.000000,,2013-07-09 16:02:00,
2013-07-09 11:11:00,83.0,74.0,-100.00,SSW,196,8.0,11.0,74,0.00,,,0.01,571.000000,,2013-07-09 16:11:00,
2013-07-09 11:43:00,83.0,74.0,-100.00,SSW,196,8.0,11.0,74,0.00,,,0.01,571.000000,,2013-07-09 16:43:00,
2013-07-09 11:53:00,83.0,74.0,-100.00,SSW,196,8.0,11.0,74,0.00,,,0.01,571.000000,,2013-07-09 16:53:00,
2013-07-09 12:02:00,83.0,74.0,-100.00,SSW,196,8.0,11.0,74,0.00,,,0.01,571.000000,,2013-07-09 17:02:00,
2013-07-09 12:11:00,86.0,75.0,-100.00,SSW,205,7.0,11.0,69,0.00,,,0.01,670.000000,,2013-07-09 17:11:00,
2013-07-09 12:45:00,86.0,75.0,-100.00,SSW,205,7.0,11.0,69,0.00,,,0.01,670.000000,,2013-07-09 17:45:00,
2013-07-09 12:53:00,86.0,75.0,-100.00,SSW,205,7.0,11.0,69,0.00,,,0.01,670.000000,,2013-07-09 17:53:00,
2013-07-09 13:02:00,86.0,75.0,-100.00,SSW,205,7.0,11.0,69,0.00,,,0.01,670.000000,,2013-07-09 18:02:00,
2013-07-09 13:11:00,89.0,74.0,-100.00,West,266,6.0,11.0,62,0.00,,,0.01,745.000000,,2013-07-09 18:11:00,
2013-07-09 13:43:00,89.0,74.0,-100.00,West,266,6.0,11.0,62,0.00,,,0.01,745.000000,,2013-07-09 18:43:00,
2013-07-09 13:52:00,89.0,74.0,-100.00,West,266,6.0,11.0,62,0.00,,,0.01,745.000000,,2013-07-09 18:52:00,
2013-07-09 14:01:00,89.0,74.0,-100.00,West,266,6.0,11.0,62,0.00,,,0.01,745.000000,,2013-07-09 19:01:00,
2013-07-09 14:11:00,90.0,72.0,-100.00,NW,309,8.0,14.0,55,0.00,,,0.01,765.000000,,2013-07-09 19:11:00,
2013-07-09 14:42:00,90.0,72.0,-100.00,NW,309,8.0,14.0,55,0.00,,,0.01,765.000000,,2013-07-09 19:42:00,
2013-07-09 14:52:00,90.0,72.0,-100.00,NW,309,8.0,14.0,55,0.00,,,0.01,765.000000,,2013-07-09 19:52:00,
2013-07-09 15:01:00,90.0,72.0,-100.00,NW,309,8.0,14.0,55,0.00,,,0.01,765.000000,,2013-07-09 20:01:00,
2013-07-09 15:11:00,90.0,71.0,-100.00,North,353,7.0,16.0,54,0.00,,,0.01,694.000000,,2013-07-09 20:11:00,
2013-07-09 15:43:00,90.0,71.0,-100.00,North,353,7.0,16.0,54,0.00,,,0.01,694.000000,,2013-07-09 20:43:00,
2013-07-09 15:52:00,90.0,71.0,-100.00,North,353,7.0,16.0,54,0.00,,,0.01,694.000000,,2013-07-09 20:52:00,
2013-07-09 16:01:00,90.0,71.0,-100.00,North,353,7.0,16.0,54,0.00,,,0.01,694.000000,,2013-07-09 21:01:00,
2013-07-09 16:11:00,90.0,73.0,-100.00,North,352,6.0,15.0,57,0.00,,,0.01,690.000000,,2013-07-09 21:11:00,
2013-07-09 16:42:00,90.0,73.0,-100.00,North,352,6.0,15.0,57,0.00,,,0.01,690.000000,,2013-07-09 21:42:00,
2013-07-09 16:52:00,90.0,73.0,-100.00,North,352,6.0,15.0,57,0.00,,,0.01,690.000000,,2013-07-09 21:52:00,
2013-07-09 17:01:00,90.0,73.0,-100.00,North,352,6.0,15.0,57,0.00,,,0.01,690.000000,,2013-07-09 22:01:00,
2013-07-09 17:11:00,88.0,70.0,-100.00,NNW,331,9.0,17.0,56,0.00,,,0.01,598.000000,,2013-07-09 22:11:00,
2013-07-09 17:42:00,88.0,70.0,-100.00,NNW,331,9.0,17.0,56,0.00,,,0.01,598.000000,,2013-07-09 22:42:00,
2013-07-09 17:53:00,88.0,70.0,-100.00,NNW,331,9.0,17.0,56,0.00,,,0.01,598.000000,,2013-07-09 22:53:00,
2013-07-09 18:02:00,88.0,70.0,-100.00,NNW,331,9.0,17.0,56,0.00,,,0.01,598.000000,,2013-07-09 23:02:00,
2013-07-09 18:11:00,88.0,69.0,-100.00,North,356,7.0,15.0,53,0.00,,,0.01,495.000000,,2013-07-09 23:11:00,
2013-07-09 18:43:00,88.0,69.0,-100.00,North,356,7.0,15.0,53,0.00,,,0.01,495.000000,,2013-07-09 23:43:00,
2013-07-09 18:53:00,88.0,69.0,-100.00,North,356,7.0,15.0,53,0.00,,,0.01,495.000000,,2013-07-09 23:53:00,
2013-07-09 19:01:00,88.0,69.0,-100.00,North,356,7.0,15.0,53,0.00,,,0.01,495.000000,,2013-07-10 00:01:00,
2013-07-09 19:11:00,87.0,67.0,-100.00,NNW,342,5.0,10.0,52,0.00,,,0.01,346.000000,,2013-07-10 00:11:00,
2013-07-09 19:43:00,87.0,67.0,-100.00,NNW,342,5.0,10.0,52,0.00,,,0.01,346.000000,,2013-07-10 00:43:00,
2013-07-09 19:52:00,87.0,67.0,-100.00,NNW,342,5.0,10.0,52,0.00,,,0.01,346.000000,,2013-07-10 00:52:00,
2013-07-09 20:01:00,87.0,67.0,-100.00,NNW,342,5.0,10.0,52,0.00,,,0.01,346.000000,,2013-07-10 01:01:00,
2013-07-09 20:11:00,84.0,69.0,-100.00,NW,325,4.0,8.0,61,0.00,,,0.01,186.000000,,2013-07-10 01:11:00,
2013-07-09 20:43:00,84.0,69.0,-100.00,NW,325,4.0,8.0,61,0.00,,,0.01,186.000000,,2013-07-10 01:43:00,
2013-07-09 20:53:00,84.0,69.0,-100.00,NW,325,4.0,8.0,61,0.00,,,0.01,186.000000,,2013-07-10 01:53:00,
2013-07-09 21:02:00,84.0,69.0,-100.00,NW,325,4.0,8.0,61,0.00,,,0.01,186.000000,,2013-07-10 02:02:00,
2013-07-09 21:11:00,76.0,70.0,-100.00,North,351,2.0,4.0,82,0.00,,,0.01,34.000000,,2013-07-10 02:11:00,
2013-07-09 21:43:00,76.0,70.0,-100.00,North,351,2.0,4.0,82,0.00,,,0.01,34.000000,,2013-07-10 02:43:00,
2013-07-09 21:53:00,76.0,70.0,-100.00,North,351,2.0,4.0,82,0.00,,,0.01,34.000000,,2013-07-10 02:53:00,
2013-07-09 22:01:00,76.0,70.0,-100.00,North,351,2.0,4.0,82,0.00,,,0.01,34.000000,,2013-07-10 03:01:00,
2013-07-09 22:11:00,72.0,68.0,-100.00,NNE,19,4.0,5.0,88,0.00,,,0.01,0.000000,,2013-07-10 03:11:00,
2013-07-09 22:43:00,72.0,68.0,-100.00,NNE,19,4.0,5.0,88,0.00,,,0.01,0.000000,,2013-07-10 03:43:00,
2013-07-09 22:52:00,72.0,68.0,-100.00,NNE,19,4.0,5.0,88,0.00,,,0.01,0.000000,,2013-07-10 03:52:00,
2013-07-09 23:01:00,72.0,68.0,-100.00,NNE,19,4.0,5.0,88,0.00,,,0.01,0.000000,,2013-07-10 04:01:00,
2013-07-09 23:11:00,73.0,68.0,-100.00,NNE,19,5.0,7.0,84,0.00,,,0.01,0.000000,,2013-07-10 04:11:00,
2013-07-09 23:33:00,73.0,68.0,-100.00,NNE,19,5.0,7.0,84,0.00,,,0.01,0.000000,,2013-07-10 04:33:00,
2013-07-09 23:43:00,73.0,68.0,-100.00,NNE,19,5.0,7.0,84,0.00,,,0.01,0.000000,,2013-07-10 04:43:00,
2013-07-09 23:52:00,73.0,68.0,-100.00,NNE,19,5.0,7.0,84,0.00,,,0.01,0.000000,,2013-07-10 04:52:00,